sensor_id;sensor_type;location;lat;lon;timestamp;temperature;humidity
30520;DHT22;17300;50.374;8.006;2023-05-10T00:00:54;18.80;60.80
30520;DHT22;17300;50.374;8.006;2023-05-10T00:03:20;18.80;60.90
30520;DHT22;17300;50.374;8.006;2023-05-10T00:05:47;18.80;61.00
30520;DHT22;17300;50.374;8.006;2023-05-10T00:08:14;18.80;61.00
30520;DHT22;17300;50.374;8.006;2023-05-10T00:10:40;18.80;60.90
30520;DHT22;17300;50.374;8.006;2023-05-10T00:13:08;18.80;60.80
30520;DHT22;17300;50.374;8.006;2023-05-10T00:15:35;18.70;60.70
30520;DHT22;17300;50.374;8.006;2023-05-10T00:18:02;18.80;60.70
30520;DHT22;17300;50.374;8.006;2023-05-10T00:20:29;18.70;60.60
30520;DHT22;17300;50.374;8.006;2023-05-10T00:22:55;18.70;60.80
30520;DHT22;17300;50.374;8.006;2023-05-10T00:25:22;18.70;60.80
30520;DHT22;17300;50.374;8.006;2023-05-10T00:27:48;18.60;60.80
30520;DHT22;17300;50.374;8.006;2023-05-10T00:30:17;18.60;60.80
30520;DHT22;17300;50.374;8.006;2023-05-10T00:32:44;18.60;60.80
30520;DHT22;17300;50.374;8.006;2023-05-10T00:35:10;18.60;60.80
30520;DHT22;17300;50.374;8.006;2023-05-10T00:37:37;18.60;60.80
30520;DHT22;17300;50.374;8.006;2023-05-10T00:40:05;18.60;60.80
30520;DHT22;17300;50.374;8.006;2023-05-10T00:42:32;18.50;60.70
30520;DHT22;17300;50.374;8.006;2023-05-10T00:44:59;18.50;60.70
30520;DHT22;17300;50.374;8.006;2023-05-10T00:47:27;18.50;61.00
30520;DHT22;17300;50.374;8.006;2023-05-10T00:49:54;18.50;61.10
30520;DHT22;17300;50.374;8.006;2023-05-10T00:52:21;18.50;61.10
30520;DHT22;17300;50.374;8.006;2023-05-10T00:54:49;18.50;61.20
30520;DHT22;17300;50.374;8.006;2023-05-10T00:57:16;18.50;61.20
30520;DHT22;17300;50.374;8.006;2023-05-10T00:59:43;18.50;61.10
30520;DHT22;17300;50.374;8.006;2023-05-10T01:02:10;18.50;61.20
30520;DHT22;17300;50.374;8.006;2023-05-10T01:04:38;18.50;61.20
30520;DHT22;17300;50.374;8.006;2023-05-10T01:07:06;18.50;61.20
30520;DHT22;17300;50.374;8.006;2023-05-10T01:09:33;18.50;61.10
30520;DHT22;17300;50.374;8.006;2023-05-10T01:12:00;18.50;61.20
30520;DHT22;17300;50.374;8.006;2023-05-10T01:14:29;18.50;61.20
30520;DHT22;17300;50.374;8.006;2023-05-10T01:16:56;18.50;61.20
30520;DHT22;17300;50.374;8.006;2023-05-10T01:19:24;18.50;61.20
30520;DHT22;17300;50.374;8.006;2023-05-10T01:22:00;18.50;61.20
30520;DHT22;17300;50.374;8.006;2023-05-10T01:24:57;18.50;61.40
30520;DHT22;17300;50.374;8.006;2023-05-10T01:27:47;18.50;61.60
30520;DHT22;17300;50.374;8.006;2023-05-10T01:33:28;18.40;61.50
30520;DHT22;17300;50.374;8.006;2023-05-10T01:36:03;18.40;60.90
30520;DHT22;17300;50.374;8.006;2023-05-10T01:38:37;18.40;61.00
30520;DHT22;17300;50.374;8.006;2023-05-10T01:41:13;18.30;61.00
30520;DHT22;17300;50.374;8.006;2023-05-10T01:43:48;18.40;61.30
30520;DHT22;17300;50.374;8.006;2023-05-10T01:46:22;18.30;61.30
30520;DHT22;17300;50.374;8.006;2023-05-10T01:48:55;18.30;61.30
30520;DHT22;17300;50.374;8.006;2023-05-10T01:51:25;18.30;61.30
30520;DHT22;17300;50.374;8.006;2023-05-10T01:53:58;18.30;61.10
30520;DHT22;17300;50.374;8.006;2023-05-10T01:56:29;18.30;61.30
30520;DHT22;17300;50.374;8.006;2023-05-10T01:58:57;18.30;61.10
30520;DHT22;17300;50.374;8.006;2023-05-10T02:01:25;18.20;60.90
30520;DHT22;17300;50.374;8.006;2023-05-10T02:03:55;18.20;60.90
30520;DHT22;17300;50.374;8.006;2023-05-10T02:06:22;18.20;61.00
30520;DHT22;17300;50.374;8.006;2023-05-10T02:08:51;18.20;61.00
30520;DHT22;17300;50.374;8.006;2023-05-10T02:11:19;18.10;61.00
30520;DHT22;17300;50.374;8.006;2023-05-10T02:13:48;18.10;61.10
30520;DHT22;17300;50.374;8.006;2023-05-10T02:16:16;18.10;61.20
30520;DHT22;17300;50.374;8.006;2023-05-10T02:18:43;18.10;61.40
30520;DHT22;17300;50.374;8.006;2023-05-10T02:21:13;18.10;61.40
30520;DHT22;17300;50.374;8.006;2023-05-10T02:23:42;18.10;61.40
30520;DHT22;17300;50.374;8.006;2023-05-10T02:26:10;18.10;61.30
30520;DHT22;17300;50.374;8.006;2023-05-10T02:28:40;18.00;61.20
30520;DHT22;17300;50.374;8.006;2023-05-10T02:31:07;18.10;61.30
30520;DHT22;17300;50.374;8.006;2023-05-10T02:33:37;18.00;61.30
30520;DHT22;17300;50.374;8.006;2023-05-10T02:36:06;18.00;61.40
30520;DHT22;17300;50.374;8.006;2023-05-10T02:38:35;18.00;61.40
30520;DHT22;17300;50.374;8.006;2023-05-10T02:41:04;17.90;61.20
30520;DHT22;17300;50.374;8.006;2023-05-10T02:43:32;18.00;61.50
30520;DHT22;17300;50.374;8.006;2023-05-10T02:45:59;17.90;61.40
30520;DHT22;17300;50.374;8.006;2023-05-10T02:48:26;17.90;61.50
30520;DHT22;17300;50.374;8.006;2023-05-10T02:50:55;17.90;61.50
30520;DHT22;17300;50.374;8.006;2023-05-10T02:53:25;17.90;61.70
30520;DHT22;17300;50.374;8.006;2023-05-10T02:55:57;17.90;61.50
30520;DHT22;17300;50.374;8.006;2023-05-10T02:58:25;17.90;61.50
30520;DHT22;17300;50.374;8.006;2023-05-10T03:00:54;17.90;61.40
30520;DHT22;17300;50.374;8.006;2023-05-10T03:03:20;17.90;61.40
30520;DHT22;17300;50.374;8.006;2023-05-10T03:05:47;17.90;61.40
30520;DHT22;17300;50.374;8.006;2023-05-10T03:08:14;17.90;61.40
30520;DHT22;17300;50.374;8.006;2023-05-10T03:10:46;17.80;61.40
30520;DHT22;17300;50.374;8.006;2023-05-10T03:13:22;17.90;61.70
30520;DHT22;17300;50.374;8.006;2023-05-10T03:15:57;17.90;61.90
30520;DHT22;17300;50.374;8.006;2023-05-10T03:18:29;17.80;61.80
30520;DHT22;17300;50.374;8.006;2023-05-10T03:21:02;17.80;61.80
30520;DHT22;17300;50.374;8.006;2023-05-10T03:23:34;17.80;61.80
30520;DHT22;17300;50.374;8.006;2023-05-10T03:26:02;17.90;61.90
30520;DHT22;17300;50.374;8.006;2023-05-10T03:28:33;17.80;61.80
30520;DHT22;17300;50.374;8.006;2023-05-10T03:31:00;17.80;61.80
30520;DHT22;17300;50.374;8.006;2023-05-10T03:33:29;17.80;61.90
30520;DHT22;17300;50.374;8.006;2023-05-10T03:35:55;17.90;62.10
30520;DHT22;17300;50.374;8.006;2023-05-10T03:38:22;17.80;61.90
30520;DHT22;17300;50.374;8.006;2023-05-10T03:40:49;17.80;62.00
30520;DHT22;17300;50.374;8.006;2023-05-10T03:43:15;17.90;62.20
30520;DHT22;17300;50.374;8.006;2023-05-10T03:45:43;17.90;62.30
30520;DHT22;17300;50.374;8.006;2023-05-10T03:48:10;17.80;62.30
30520;DHT22;17300;50.374;8.006;2023-05-10T03:50:38;17.90;62.20
30520;DHT22;17300;50.374;8.006;2023-05-10T03:53:05;17.90;62.20
30520;DHT22;17300;50.374;8.006;2023-05-10T03:55:32;17.80;62.30
30520;DHT22;17300;50.374;8.006;2023-05-10T03:58:01;17.90;62.30
30520;DHT22;17300;50.374;8.006;2023-05-10T04:00:28;17.90;62.30
30520;DHT22;17300;50.374;8.006;2023-05-10T04:02:56;17.90;62.40
30520;DHT22;17300;50.374;8.006;2023-05-10T04:05:23;17.90;62.50
30520;DHT22;17300;50.374;8.006;2023-05-10T04:07:50;17.90;62.40
30520;DHT22;17300;50.374;8.006;2023-05-10T04:10:17;17.90;62.40
30520;DHT22;17300;50.374;8.006;2023-05-10T04:12:43;17.90;62.50
30520;DHT22;17300;50.374;8.006;2023-05-10T04:15:10;17.90;62.50
30520;DHT22;17300;50.374;8.006;2023-05-10T04:17:37;17.90;62.50
30520;DHT22;17300;50.374;8.006;2023-05-10T04:20:06;17.90;62.50
30520;DHT22;17300;50.374;8.006;2023-05-10T04:22:33;17.90;62.50
30520;DHT22;17300;50.374;8.006;2023-05-10T04:25:00;17.90;62.30
30520;DHT22;17300;50.374;8.006;2023-05-10T04:27:27;17.90;62.30
30520;DHT22;17300;50.374;8.006;2023-05-10T04:29:53;17.90;62.30
30520;DHT22;17300;50.374;8.006;2023-05-10T04:32:20;17.90;62.40
30520;DHT22;17300;50.374;8.006;2023-05-10T04:34:46;17.90;62.40
30520;DHT22;17300;50.374;8.006;2023-05-10T04:37:14;17.90;63.20
30520;DHT22;17300;50.374;8.006;2023-05-10T04:39:41;17.90;62.50
30520;DHT22;17300;50.374;8.006;2023-05-10T04:42:08;17.90;62.50
30520;DHT22;17300;50.374;8.006;2023-05-10T04:44:35;18.00;62.70
30520;DHT22;17300;50.374;8.006;2023-05-10T04:47:02;17.90;62.60
30520;DHT22;17300;50.374;8.006;2023-05-10T04:49:29;18.00;62.90
30520;DHT22;17300;50.374;8.006;2023-05-10T04:51:56;18.00;62.90
30520;DHT22;17300;50.374;8.006;2023-05-10T04:54:24;18.00;63.00
30520;DHT22;17300;50.374;8.006;2023-05-10T04:56:50;18.00;63.00
30520;DHT22;17300;50.374;8.006;2023-05-10T04:59:17;18.00;63.00
30520;DHT22;17300;50.374;8.006;2023-05-10T05:01:44;18.10;63.10
30520;DHT22;17300;50.374;8.006;2023-05-10T05:04:10;18.10;63.10
30520;DHT22;17300;50.374;8.006;2023-05-10T05:06:37;18.10;63.20
30520;DHT22;17300;50.374;8.006;2023-05-10T05:09:04;18.20;63.30
30520;DHT22;17300;50.374;8.006;2023-05-10T05:11:32;18.20;64.10
30520;DHT22;17300;50.374;8.006;2023-05-10T05:13:58;18.20;63.30
30520;DHT22;17300;50.374;8.006;2023-05-10T05:16:25;18.20;63.20
30520;DHT22;17300;50.374;8.006;2023-05-10T05:18:52;18.20;63.10
30520;DHT22;17300;50.374;8.006;2023-05-10T05:21:19;18.30;63.10
30520;DHT22;17300;50.374;8.006;2023-05-10T05:23:46;18.30;63.00
30520;DHT22;17300;50.374;8.006;2023-05-10T05:26:13;18.30;63.00
30520;DHT22;17300;50.374;8.006;2023-05-10T05:28:41;18.30;63.00
30520;DHT22;17300;50.374;8.006;2023-05-10T05:31:08;18.30;63.00
30520;DHT22;17300;50.374;8.006;2023-05-10T05:33:35;18.30;63.10
30520;DHT22;17300;50.374;8.006;2023-05-10T05:36:02;18.30;63.20
30520;DHT22;17300;50.374;8.006;2023-05-10T05:38:29;18.30;63.20
30520;DHT22;17300;50.374;8.006;2023-05-10T05:40:56;18.30;63.00
30520;DHT22;17300;50.374;8.006;2023-05-10T05:43:22;18.40;63.10
30520;DHT22;17300;50.374;8.006;2023-05-10T05:45:52;18.40;63.00
30520;DHT22;17300;50.374;8.006;2023-05-10T05:48:18;18.40;63.00
30520;DHT22;17300;50.374;8.006;2023-05-10T05:50:45;18.40;63.00
30520;DHT22;17300;50.374;8.006;2023-05-10T05:53:12;18.40;63.00
30520;DHT22;17300;50.374;8.006;2023-05-10T05:55:38;18.40;63.00
30520;DHT22;17300;50.374;8.006;2023-05-10T05:58:05;18.50;63.10
30520;DHT22;17300;50.374;8.006;2023-05-10T06:00:32;18.50;63.10
30520;DHT22;17300;50.374;8.006;2023-05-10T06:03:00;18.50;63.20
30520;DHT22;17300;50.374;8.006;2023-05-10T06:05:26;18.50;63.30
30520;DHT22;17300;50.374;8.006;2023-05-10T06:07:53;18.60;63.30
30520;DHT22;17300;50.374;8.006;2023-05-10T06:10:19;18.60;63.10
30520;DHT22;17300;50.374;8.006;2023-05-10T06:12:46;18.60;63.10
30520;DHT22;17300;50.374;8.006;2023-05-10T06:15:13;18.70;63.10
30520;DHT22;17300;50.374;8.006;2023-05-10T06:17:39;18.70;62.90
30520;DHT22;17300;50.374;8.006;2023-05-10T06:20:09;18.70;62.80
30520;DHT22;17300;50.374;8.006;2023-05-10T06:22:36;18.80;63.00
30520;DHT22;17300;50.374;8.006;2023-05-10T06:25:03;18.80;63.20
30520;DHT22;17300;50.374;8.006;2023-05-10T06:27:29;18.90;63.70
30520;DHT22;17300;50.374;8.006;2023-05-10T06:29:56;19.00;64.20
30520;DHT22;17300;50.374;8.006;2023-05-10T06:32:23;19.20;64.80
30520;DHT22;17300;50.374;8.006;2023-05-10T06:34:50;19.40;66.10
30520;DHT22;17300;50.374;8.006;2023-05-10T06:37:18;19.70;66.90
30520;DHT22;17300;50.374;8.006;2023-05-10T06:39:44;20.00;67.80
30520;DHT22;17300;50.374;8.006;2023-05-10T06:42:11;20.50;70.20
30520;DHT22;17300;50.374;8.006;2023-05-10T06:44:37;21.10;71.20
30520;DHT22;17300;50.374;8.006;2023-05-10T06:47:04;21.70;70.00
30520;DHT22;17300;50.374;8.006;2023-05-10T06:49:31;22.30;68.40
30520;DHT22;17300;50.374;8.006;2023-05-10T06:51:58;23.00;69.50
30520;DHT22;17300;50.374;8.006;2023-05-10T06:54:26;23.60;69.50
30520;DHT22;17300;50.374;8.006;2023-05-10T06:56:53;24.30;67.50
30520;DHT22;17300;50.374;8.006;2023-05-10T06:59:19;24.80;64.60
30520;DHT22;17300;50.374;8.006;2023-05-10T07:01:46;25.10;61.80
30520;DHT22;17300;50.374;8.006;2023-05-10T07:04:13;25.40;59.60
30520;DHT22;17300;50.374;8.006;2023-05-10T07:06:40;25.40;58.10
30520;DHT22;17300;50.374;8.006;2023-05-10T07:09:06;25.40;57.10
30520;DHT22;17300;50.374;8.006;2023-05-10T07:11:35;25.20;56.40
30520;DHT22;17300;50.374;8.006;2023-05-10T07:14:02;25.00;55.90
30520;DHT22;17300;50.374;8.006;2023-05-10T07:16:29;24.80;55.80
30520;DHT22;17300;50.374;8.006;2023-05-10T07:18:56;24.50;55.70
30520;DHT22;17300;50.374;8.006;2023-05-10T07:21:22;24.30;55.70
30520;DHT22;17300;50.374;8.006;2023-05-10T07:23:50;24.10;55.70
30520;DHT22;17300;50.374;8.006;2023-05-10T07:26:17;23.80;55.60
30520;DHT22;17300;50.374;8.006;2023-05-10T07:28:45;23.60;55.90
30520;DHT22;17300;50.374;8.006;2023-05-10T07:31:11;23.50;56.10
30520;DHT22;17300;50.374;8.006;2023-05-10T07:33:38;23.30;56.30
30520;DHT22;17300;50.374;8.006;2023-05-10T07:36:05;23.20;56.50
30520;DHT22;17300;50.374;8.006;2023-05-10T07:38:32;23.20;56.90
30520;DHT22;17300;50.374;8.006;2023-05-10T07:40:58;23.10;57.00
30520;DHT22;17300;50.374;8.006;2023-05-10T07:43:25;23.10;57.20
30520;DHT22;17300;50.374;8.006;2023-05-10T07:45:53;23.10;57.20
30520;DHT22;17300;50.374;8.006;2023-05-10T07:48:20;23.00;57.00
30520;DHT22;17300;50.374;8.006;2023-05-10T07:50:47;23.10;57.40
30520;DHT22;17300;50.374;8.006;2023-05-10T07:53:14;23.20;57.50
30520;DHT22;17300;50.374;8.006;2023-05-10T07:55:40;23.20;57.90
30520;DHT22;17300;50.374;8.006;2023-05-10T07:58:07;23.30;58.90
30520;DHT22;17300;50.374;8.006;2023-05-10T08:00:34;23.50;58.60
30520;DHT22;17300;50.374;8.006;2023-05-10T08:03:02;23.70;58.10
30520;DHT22;17300;50.374;8.006;2023-05-10T08:05:29;23.80;57.40
30520;DHT22;17300;50.374;8.006;2023-05-10T08:07:55;23.90;57.00
30520;DHT22;17300;50.374;8.006;2023-05-10T08:10:22;24.00;56.60
30520;DHT22;17300;50.374;8.006;2023-05-10T08:12:49;24.10;56.10
30520;DHT22;17300;50.374;8.006;2023-05-10T08:15:15;24.10;55.80
30520;DHT22;17300;50.374;8.006;2023-05-10T08:17:42;24.10;55.60
30520;DHT22;17300;50.374;8.006;2023-05-10T08:20:11;24.10;55.50
30520;DHT22;17300;50.374;8.006;2023-05-10T08:22:42;24.00;55.30
30520;DHT22;17300;50.374;8.006;2023-05-10T08:25:08;24.10;55.60
30520;DHT22;17300;50.374;8.006;2023-05-10T08:27:35;24.10;55.60
30520;DHT22;17300;50.374;8.006;2023-05-10T08:30:02;24.10;55.60
30520;DHT22;17300;50.374;8.006;2023-05-10T08:32:29;24.10;55.50
30520;DHT22;17300;50.374;8.006;2023-05-10T08:34:56;24.20;55.50
30520;DHT22;17300;50.374;8.006;2023-05-10T08:37:24;24.30;55.80
30520;DHT22;17300;50.374;8.006;2023-05-10T08:39:51;24.40;55.90
30520;DHT22;17300;50.374;8.006;2023-05-10T08:42:19;24.50;56.20
30520;DHT22;17300;50.374;8.006;2023-05-10T08:44:48;24.70;56.80
30520;DHT22;17300;50.374;8.006;2023-05-10T08:47:16;25.10;57.50
30520;DHT22;17300;50.374;8.006;2023-05-10T08:49:47;25.40;57.20
30520;DHT22;17300;50.374;8.006;2023-05-10T08:52:15;25.80;56.30
30520;DHT22;17300;50.374;8.006;2023-05-10T08:54:44;26.20;56.20
30520;DHT22;17300;50.374;8.006;2023-05-10T08:57:11;26.50;55.80
30520;DHT22;17300;50.374;8.006;2023-05-10T08:59:37;26.90;56.00
30520;DHT22;17300;50.374;8.006;2023-05-10T09:02:05;27.30;56.00
30520;DHT22;17300;50.374;8.006;2023-05-10T09:04:32;27.80;56.20
30520;DHT22;17300;50.374;8.006;2023-05-10T09:06:59;28.30;56.10
30520;DHT22;17300;50.374;8.006;2023-05-10T09:09:27;28.80;55.50
30520;DHT22;17300;50.374;8.006;2023-05-10T09:11:55;29.40;55.40
30520;DHT22;17300;50.374;8.006;2023-05-10T09:14:23;29.90;53.50
30520;DHT22;17300;50.374;8.006;2023-05-10T09:16:50;30.30;52.40
30520;DHT22;17300;50.374;8.006;2023-05-10T09:19:19;30.50;50.20
30520;DHT22;17300;50.374;8.006;2023-05-10T09:21:45;30.70;49.50
30520;DHT22;17300;50.374;8.006;2023-05-10T09:24:12;30.70;48.80
30520;DHT22;17300;50.374;8.006;2023-05-10T09:26:46;30.80;48.60
30520;DHT22;17300;50.374;8.006;2023-05-10T09:29:15;30.70;47.40
30520;DHT22;17300;50.374;8.006;2023-05-10T09:31:46;30.70;47.20
30520;DHT22;17300;50.374;8.006;2023-05-10T09:34:17;30.60;47.00
30520;DHT22;17300;50.374;8.006;2023-05-10T09:36:55;30.50;47.00
30520;DHT22;17300;50.374;8.006;2023-05-10T09:39:30;30.40;45.90
30520;DHT22;17300;50.374;8.006;2023-05-10T09:41:58;30.30;45.40
30520;DHT22;17300;50.374;8.006;2023-05-10T09:44:27;30.10;46.20
30520;DHT22;17300;50.374;8.006;2023-05-10T09:46:54;30.00;46.10
30520;DHT22;17300;50.374;8.006;2023-05-10T09:49:21;30.10;47.30
30520;DHT22;17300;50.374;8.006;2023-05-10T09:52:01;30.30;48.30
30520;DHT22;17300;50.374;8.006;2023-05-10T09:54:28;30.70;47.60
30520;DHT22;17300;50.374;8.006;2023-05-10T09:56:55;31.20;49.60
30520;DHT22;17300;50.374;8.006;2023-05-10T09:59:25;31.90;48.80
30520;DHT22;17300;50.374;8.006;2023-05-10T10:01:56;32.70;47.60
30520;DHT22;17300;50.374;8.006;2023-05-10T10:04:23;33.30;45.60
30520;DHT22;17300;50.374;8.006;2023-05-10T10:06:58;33.80;44.40
30520;DHT22;17300;50.374;8.006;2023-05-10T10:09:26;34.10;41.60
30520;DHT22;17300;50.374;8.006;2023-05-10T10:11:54;34.10;41.00
30520;DHT22;17300;50.374;8.006;2023-05-10T10:14:22;34.00;39.80
30520;DHT22;17300;50.374;8.006;2023-05-10T10:16:49;33.70;39.40
30520;DHT22;17300;50.374;8.006;2023-05-10T10:19:17;33.40;39.30
30520;DHT22;17300;50.374;8.006;2023-05-10T10:21:44;33.00;39.30
30520;DHT22;17300;50.374;8.006;2023-05-10T10:24:11;32.70;39.10
30520;DHT22;17300;50.374;8.006;2023-05-10T10:26:38;32.30;38.90
30520;DHT22;17300;50.374;8.006;2023-05-10T10:29:16;31.80;39.30
30520;DHT22;17300;50.374;8.006;2023-05-10T10:31:47;31.50;39.20
30520;DHT22;17300;50.374;8.006;2023-05-10T10:34:25;31.10;40.40
30520;DHT22;17300;50.374;8.006;2023-05-10T10:36:56;30.80;39.90
30520;DHT22;17300;50.374;8.006;2023-05-10T10:39:24;30.40;40.20
30520;DHT22;17300;50.374;8.006;2023-05-10T10:41:52;30.00;40.00
30520;DHT22;17300;50.374;8.006;2023-05-10T10:44:23;29.60;39.90
30520;DHT22;17300;50.374;8.006;2023-05-10T10:47:05;29.20;40.20
30520;DHT22;17300;50.374;8.006;2023-05-10T10:49:38;28.70;40.30
30520;DHT22;17300;50.374;8.006;2023-05-10T10:52:22;28.40;40.60
30520;DHT22;17300;50.374;8.006;2023-05-10T10:54:52;28.10;41.40
30520;DHT22;17300;50.374;8.006;2023-05-10T10:57:20;27.90;42.50
30520;DHT22;17300;50.374;8.006;2023-05-10T10:59:48;27.90;43.70
30520;DHT22;17300;50.374;8.006;2023-05-10T11:02:33;27.90;44.10
30520;DHT22;17300;50.374;8.006;2023-05-10T11:05:23;28.00;43.80
30520;DHT22;17300;50.374;8.006;2023-05-10T11:07:53;28.20;43.40
30520;DHT22;17300;50.374;8.006;2023-05-10T11:10:20;28.30;42.70
30520;DHT22;17300;50.374;8.006;2023-05-10T11:12:54;28.30;42.40
30520;DHT22;17300;50.374;8.006;2023-05-10T11:15:28;28.30;41.70
30520;DHT22;17300;50.374;8.006;2023-05-10T11:17:56;28.20;41.90
30520;DHT22;17300;50.374;8.006;2023-05-10T11:20:27;28.10;42.10
30520;DHT22;17300;50.374;8.006;2023-05-10T11:23:11;28.00;42.00
30520;DHT22;17300;50.374;8.006;2023-05-10T11:25:42;27.90;42.20
30520;DHT22;17300;50.374;8.006;2023-05-10T11:28:09;27.80;42.20
30520;DHT22;17300;50.374;8.006;2023-05-10T11:30:36;27.60;42.70
30520;DHT22;17300;50.374;8.006;2023-05-10T11:33:05;27.50;42.60
30520;DHT22;17300;50.374;8.006;2023-05-10T11:35:37;27.50;43.20
30520;DHT22;17300;50.374;8.006;2023-05-10T11:38:06;27.40;43.10
30520;DHT22;17300;50.374;8.006;2023-05-10T11:40:32;27.50;43.50
30520;DHT22;17300;50.374;8.006;2023-05-10T11:42:59;27.40;43.60
30520;DHT22;17300;50.374;8.006;2023-05-10T11:45:26;27.50;43.30
30520;DHT22;17300;50.374;8.006;2023-05-10T11:47:54;27.60;43.00
30520;DHT22;17300;50.374;8.006;2023-05-10T11:50:21;27.70;42.80
30520;DHT22;17300;50.374;8.006;2023-05-10T11:52:51;27.70;42.80
30520;DHT22;17300;50.374;8.006;2023-05-10T11:55:18;27.80;42.00
30520;DHT22;17300;50.374;8.006;2023-05-10T11:57:45;27.80;41.90
30520;DHT22;17300;50.374;8.006;2023-05-10T12:00:13;27.80;41.70
30520;DHT22;17300;50.374;8.006;2023-05-10T12:02:40;27.80;41.50
30520;DHT22;17300;50.374;8.006;2023-05-10T12:05:07;27.80;41.40
30520;DHT22;17300;50.374;8.006;2023-05-10T12:07:34;27.70;41.30
30520;DHT22;17300;50.374;8.006;2023-05-10T12:10:10;27.60;41.20
30520;DHT22;17300;50.374;8.006;2023-05-10T12:12:40;27.50;41.00
30520;DHT22;17300;50.374;8.006;2023-05-10T12:15:11;27.50;41.40
30520;DHT22;17300;50.374;8.006;2023-05-10T12:17:39;27.40;41.50
30520;DHT22;17300;50.374;8.006;2023-05-10T12:20:16;27.30;41.40
30520;DHT22;17300;50.374;8.006;2023-05-10T12:22:45;27.20;41.20
30520;DHT22;17300;50.374;8.006;2023-05-10T12:25:13;27.20;41.70
30520;DHT22;17300;50.374;8.006;2023-05-10T12:27:47;27.10;41.70
30520;DHT22;17300;50.374;8.006;2023-05-10T12:30:19;27.10;42.10
30520;DHT22;17300;50.374;8.006;2023-05-10T12:32:46;27.20;42.00
30520;DHT22;17300;50.374;8.006;2023-05-10T12:35:13;27.20;42.50
30520;DHT22;17300;50.374;8.006;2023-05-10T12:37:40;27.20;42.00
30520;DHT22;17300;50.374;8.006;2023-05-10T12:40:07;27.20;41.70
30520;DHT22;17300;50.374;8.006;2023-05-10T12:42:36;27.30;41.60
30520;DHT22;17300;50.374;8.006;2023-05-10T12:45:04;27.30;41.50
30520;DHT22;17300;50.374;8.006;2023-05-10T12:47:31;27.30;41.60
30520;DHT22;17300;50.374;8.006;2023-05-10T12:49:59;27.20;41.50
30520;DHT22;17300;50.374;8.006;2023-05-10T12:52:26;27.20;41.40
30520;DHT22;17300;50.374;8.006;2023-05-10T12:54:53;27.20;41.20
30520;DHT22;17300;50.374;8.006;2023-05-10T12:57:20;27.20;41.10
30520;DHT22;17300;50.374;8.006;2023-05-10T12:59:48;27.20;41.10
30520;DHT22;17300;50.374;8.006;2023-05-10T13:02:15;27.20;41.60
30520;DHT22;17300;50.374;8.006;2023-05-10T13:04:44;27.10;41.40
30520;DHT22;17300;50.374;8.006;2023-05-10T13:07:11;27.10;41.70
30520;DHT22;17300;50.374;8.006;2023-05-10T13:09:39;27.10;41.60
30520;DHT22;17300;50.374;8.006;2023-05-10T13:12:05;27.00;41.30
30520;DHT22;17300;50.374;8.006;2023-05-10T13:14:32;27.00;41.40
30520;DHT22;17300;50.374;8.006;2023-05-10T13:17:00;26.90;41.30
30520;DHT22;17300;50.374;8.006;2023-05-10T13:19:27;26.80;41.00
30520;DHT22;17300;50.374;8.006;2023-05-10T13:21:53;26.70;40.80
30520;DHT22;17300;50.374;8.006;2023-05-10T13:24:20;26.60;40.80
30520;DHT22;17300;50.374;8.006;2023-05-10T13:26:47;26.50;40.90
30520;DHT22;17300;50.374;8.006;2023-05-10T13:29:13;26.30;40.90
30520;DHT22;17300;50.374;8.006;2023-05-10T13:31:42;26.20;40.90
30520;DHT22;17300;50.374;8.006;2023-05-10T13:34:10;26.00;40.90
30520;DHT22;17300;50.374;8.006;2023-05-10T13:36:37;25.70;40.90
30520;DHT22;17300;50.374;8.006;2023-05-10T13:39:04;25.60;41.20
30520;DHT22;17300;50.374;8.006;2023-05-10T13:41:30;25.40;41.30
30520;DHT22;17300;50.374;8.006;2023-05-10T13:43:57;25.30;41.70
30520;DHT22;17300;50.374;8.006;2023-05-10T13:46:24;25.10;41.80
30520;DHT22;17300;50.374;8.006;2023-05-10T13:48:50;24.90;41.90
30520;DHT22;17300;50.374;8.006;2023-05-10T13:51:18;24.80;42.20
30520;DHT22;17300;50.374;8.006;2023-05-10T13:53:45;24.70;42.70
30520;DHT22;17300;50.374;8.006;2023-05-10T13:56:12;24.50;42.70
30520;DHT22;17300;50.374;8.006;2023-05-10T13:58:39;24.40;42.80
30520;DHT22;17300;50.374;8.006;2023-05-10T14:01:06;24.30;43.00
30520;DHT22;17300;50.374;8.006;2023-05-10T14:03:33;24.20;43.30
30520;DHT22;17300;50.374;8.006;2023-05-10T14:06:00;24.10;43.60
30520;DHT22;17300;50.374;8.006;2023-05-10T14:08:28;24.00;43.70
30520;DHT22;17300;50.374;8.006;2023-05-10T14:10:55;23.90;44.10
30520;DHT22;17300;50.374;8.006;2023-05-10T14:13:23;23.90;44.20
30520;DHT22;17300;50.374;8.006;2023-05-10T14:15:50;23.90;44.50
30520;DHT22;17300;50.374;8.006;2023-05-10T14:18:16;23.90;44.90
30520;DHT22;17300;50.374;8.006;2023-05-10T14:20:43;23.80;45.10
30520;DHT22;17300;50.374;8.006;2023-05-10T14:23:10;23.90;45.20
30520;DHT22;17300;50.374;8.006;2023-05-10T14:25:40;23.90;45.30
30520;DHT22;17300;50.374;8.006;2023-05-10T14:28:06;23.90;45.40
30520;DHT22;17300;50.374;8.006;2023-05-10T14:30:33;24.00;45.70
30520;DHT22;17300;50.374;8.006;2023-05-10T14:33:01;24.00;45.80
30520;DHT22;17300;50.374;8.006;2023-05-10T14:35:28;24.00;46.10
30520;DHT22;17300;50.374;8.006;2023-05-10T14:37:56;24.10;46.00
30520;DHT22;17300;50.374;8.006;2023-05-10T14:40:23;24.20;46.20
30520;DHT22;17300;50.374;8.006;2023-05-10T14:42:51;24.30;45.90
30520;DHT22;17300;50.374;8.006;2023-05-10T14:45:19;24.40;46.00
30520;DHT22;17300;50.374;8.006;2023-05-10T14:47:46;24.40;45.70
30520;DHT22;17300;50.374;8.006;2023-05-10T14:50:13;24.50;45.70
30520;DHT22;17300;50.374;8.006;2023-05-10T14:52:39;24.50;45.50
30520;DHT22;17300;50.374;8.006;2023-05-10T14:55:07;24.50;45.40
30520;DHT22;17300;50.374;8.006;2023-05-10T14:57:34;24.50;45.40
30520;DHT22;17300;50.374;8.006;2023-05-10T15:00:03;24.50;45.40
30520;DHT22;17300;50.374;8.006;2023-05-10T15:02:30;24.40;45.20
30520;DHT22;17300;50.374;8.006;2023-05-10T15:04:57;24.30;44.90
30520;DHT22;17300;50.374;8.006;2023-05-10T15:07:24;24.20;45.00
30520;DHT22;17300;50.374;8.006;2023-05-10T15:09:51;24.10;44.90
30520;DHT22;17300;50.374;8.006;2023-05-10T15:12:18;24.00;45.10
30520;DHT22;17300;50.374;8.006;2023-05-10T15:14:45;23.90;45.20
30520;DHT22;17300;50.374;8.006;2023-05-10T15:17:12;23.90;45.30
30520;DHT22;17300;50.374;8.006;2023-05-10T15:19:39;23.80;45.30
30520;DHT22;17300;50.374;8.006;2023-05-10T15:22:06;23.80;45.50
30520;DHT22;17300;50.374;8.006;2023-05-10T15:24:32;23.80;45.80
30520;DHT22;17300;50.374;8.006;2023-05-10T15:26:59;23.70;45.90
30520;DHT22;17300;50.374;8.006;2023-05-10T15:29:26;23.70;46.00
30520;DHT22;17300;50.374;8.006;2023-05-10T15:31:53;23.80;46.30
30520;DHT22;17300;50.374;8.006;2023-05-10T15:34:21;23.80;46.20
30520;DHT22;17300;50.374;8.006;2023-05-10T15:36:47;23.80;46.10
30520;DHT22;17300;50.374;8.006;2023-05-10T15:39:14;23.90;46.30